createdAt,value
2023-01-15T00:00:36.025Z,51.90
2023-01-15T00:01:35.992Z,51.89
2023-01-15T00:02:36.029Z,51.91
2023-01-15T00:03:35.943Z,51.87
2023-01-15T00:04:35.968Z,51.86
2023-01-15T00:05:35.926Z,51.79
2023-01-15T00:06:35.902Z,51.82
2023-01-15T00:07:35.854Z,51.88
2023-01-15T00:08:35.865Z,51.97
2023-01-15T00:09:35.852Z,51.93
2023-01-15T00:10:35.834Z,51.95
2023-01-15T00:11:35.803Z,51.93
2023-01-15T00:12:35.810Z,51.95
2023-01-15T00:13:35.763Z,52.00
2023-01-15T00:14:35.761Z,52.00
2023-01-15T00:15:35.711Z,52.04
2023-01-15T00:16:35.725Z,51.97
2023-01-15T00:17:35.690Z,51.96
2023-01-15T00:18:35.698Z,51.96
2023-01-15T00:19:35.630Z,52.07
2023-01-15T00:20:35.804Z,52.03
2023-01-15T00:21:35.618Z,52.06
2023-01-15T00:22:35.619Z,52.04
2023-01-15T00:23:35.561Z,52.06
2023-01-15T00:24:35.564Z,52.06
2023-01-15T00:25:35.523Z,52.09
2023-01-15T00:26:35.630Z,52.06
2023-01-15T00:27:35.498Z,52.06
2023-01-15T00:28:35.505Z,52.00
2023-01-15T00:29:35.441Z,52.06
2023-01-15T00:30:35.442Z,52.07
2023-01-15T00:31:35.384Z,52.03
2023-01-15T00:32:35.402Z,52.05
2023-01-15T00:33:35.346Z,52.06
2023-01-15T00:34:35.351Z,52.02
2023-01-15T00:35:35.346Z,52.06
2023-01-15T00:36:35.322Z,52.03
2023-01-15T00:37:35.273Z,52.08
2023-01-15T00:38:35.295Z,51.98
2023-01-15T00:39:35.295Z,52.01
2023-01-15T00:40:35.216Z,51.97
2023-01-15T00:41:35.188Z,51.99
2023-01-15T00:42:35.239Z,51.99
2023-01-15T00:43:35.184Z,51.95
2023-01-15T00:44:35.140Z,51.96
2023-01-15T00:45:35.100Z,51.96
2023-01-15T00:46:35.160Z,51.94
2023-01-15T00:47:35.155Z,51.92
2023-01-15T00:48:35.080Z,51.92
2023-01-15T00:49:35.060Z,51.95
2023-01-15T00:50:35.041Z,51.91
2023-01-15T00:51:35.031Z,51.93
2023-01-15T00:52:34.980Z,51.98
2023-01-15T00:53:34.972Z,51.92
2023-01-15T00:54:34.976Z,51.93
2023-01-15T00:55:34.940Z,51.96
2023-01-15T00:56:34.914Z,51.86
2023-01-15T00:57:34.885Z,51.88
2023-01-15T00:58:34.885Z,51.89
2023-01-15T00:59:34.853Z,51.87
2023-01-15T01:00:34.955Z,51.90
2023-01-15T01:01:34.844Z,51.90
2023-01-15T01:02:34.828Z,51.89
2023-01-15T01:03:34.801Z,51.83
2023-01-15T01:04:34.923Z,51.80
2023-01-15T01:05:34.786Z,51.84
2023-01-15T01:06:34.680Z,51.86
2023-01-15T01:07:34.647Z,51.85
2023-01-15T01:08:34.805Z,51.86
2023-01-15T01:09:34.647Z,51.88
2023-01-15T01:10:34.627Z,51.85
2023-01-15T01:11:34.745Z,51.85
2023-01-15T01:12:34.594Z,51.82
2023-01-15T01:13:34.546Z,51.85
2023-01-15T01:14:34.554Z,51.86
2023-01-15T01:15:34.498Z,51.86
2023-01-15T01:16:34.523Z,51.83
2023-01-15T01:17:34.443Z,51.79
2023-01-15T01:18:34.569Z,51.86
2023-01-15T01:19:34.418Z,51.78
2023-01-15T01:20:34.450Z,51.89
2023-01-15T01:21:34.404Z,51.83
2023-01-15T01:22:34.394Z,51.79
2023-01-15T01:23:34.339Z,51.89
2023-01-15T01:24:34.371Z,51.84
2023-01-15T01:25:34.336Z,51.83
2023-01-15T01:26:34.311Z,51.78
2023-01-15T01:27:34.294Z,51.75
2023-01-15T01:28:34.306Z,51.84
2023-01-15T01:29:34.288Z,51.80
2023-01-15T01:30:34.244Z,51.83
2023-01-15T01:31:34.299Z,51.82
2023-01-15T01:32:34.238Z,51.79
2023-01-15T01:33:34.187Z,51.81
2023-01-15T01:34:34.180Z,51.77
2023-01-15T01:35:34.147Z,51.73
2023-01-15T01:36:34.179Z,51.81
2023-01-15T01:37:34.110Z,51.79
2023-01-15T01:38:34.161Z,51.87
2023-01-15T01:39:34.113Z,51.79
2023-01-15T01:40:34.097Z,51.79
2023-01-15T01:41:34.049Z,51.74
2023-01-15T01:42:34.061Z,51.70
2023-01-15T01:43:34.036Z,51.72
2023-01-15T01:44:34.018Z,51.76
2023-01-15T01:45:34.025Z,51.72
2023-01-15T01:46:34.001Z,51.72
2023-01-15T01:47:33.970Z,51.65
2023-01-15T01:48:33.957Z,51.73
2023-01-15T01:49:33.926Z,51.69
2023-01-15T01:50:33.943Z,51.71
2023-01-15T01:51:33.890Z,51.74
2023-01-15T01:52:33.876Z,51.70
2023-01-15T01:53:33.833Z,51.69
2023-01-15T01:54:34.012Z,51.73
2023-01-15T01:55:33.926Z,51.72
2023-01-15T01:56:33.927Z,51.63
2023-01-15T01:57:33.865Z,51.68
2023-01-15T01:58:33.916Z,51.72
2023-01-15T01:59:33.878Z,51.72
2023-01-15T02:00:33.938Z,51.71
2023-01-15T02:01:33.881Z,51.74
2023-01-15T02:02:33.917Z,51.70
2023-01-15T02:03:33.776Z,51.69
2023-01-15T02:04:33.788Z,51.69
2023-01-15T02:05:33.713Z,51.66
2023-01-15T02:06:33.753Z,51.66
2023-01-15T02:07:33.704Z,51.65
2023-01-15T02:08:33.753Z,51.62
2023-01-15T02:09:33.717Z,51.69
2023-01-15T02:10:33.683Z,51.62
2023-01-15T02:11:33.629Z,51.57
2023-01-15T02:12:33.517Z,51.62
2023-01-15T02:13:33.509Z,51.58
2023-01-15T02:14:34.267Z,51.60
2023-01-15T02:15:33.455Z,51.60
2023-01-15T02:16:33.517Z,51.58
2023-01-15T02:17:33.431Z,51.55
2023-01-15T02:18:33.419Z,51.62
2023-01-15T02:19:33.373Z,51.58
2023-01-15T02:20:33.405Z,51.67
2023-01-15T02:21:33.351Z,51.59
2023-01-15T02:22:33.357Z,51.57
2023-01-15T02:23:33.314Z,51.57
2023-01-15T02:24:33.309Z,51.50
2023-01-15T02:25:33.297Z,51.51
2023-01-15T02:26:33.277Z,51.42
2023-01-15T02:27:33.231Z,51.51
2023-01-15T02:28:33.239Z,51.55
2023-01-15T02:29:33.202Z,51.58
2023-01-15T02:30:33.200Z,51.49
2023-01-15T02:31:33.202Z,51.54
2023-01-15T02:32:33.156Z,51.46
2023-01-15T02:33:33.125Z,51.45
2023-01-15T02:34:33.111Z,51.46
2023-01-15T02:35:33.090Z,51.44
2023-01-15T02:36:33.090Z,51.42
2023-01-15T02:37:33.036Z,51.47
2023-01-15T02:38:33.015Z,51.47
2023-01-15T02:39:33.000Z,51.44
2023-01-15T02:40:32.973Z,51.45
2023-01-15T02:41:32.962Z,51.44
2023-01-15T02:42:32.978Z,51.46
2023-01-15T02:43:32.922Z,51.45
2023-01-15T02:44:32.873Z,51.40
2023-01-15T02:45:32.924Z,51.47
2023-01-15T02:46:32.859Z,51.49
2023-01-15T02:47:32.825Z,51.40
2023-01-15T02:48:32.809Z,51.38
2023-01-15T02:49:32.752Z,51.34
2023-01-15T02:50:32.798Z,51.36
2023-01-15T02:51:32.726Z,51.39
2023-01-15T02:52:32.723Z,51.39
2023-01-15T02:53:32.697Z,51.41
2023-01-15T02:54:32.670Z,51.36
2023-01-15T02:55:32.661Z,51.37
2023-01-15T02:56:32.641Z,51.40
2023-01-15T02:57:32.580Z,51.36
2023-01-15T02:58:32.618Z,51.39
2023-01-15T02:59:32.556Z,51.43
2023-01-15T03:00:32.557Z,51.39
2023-01-15T03:01:32.576Z,51.34
2023-01-15T03:02:32.596Z,51.32
2023-01-15T03:03:32.495Z,51.33
2023-01-15T03:04:32.488Z,51.27
2023-01-15T03:05:32.431Z,51.30
2023-01-15T03:06:32.464Z,51.43
2023-01-15T03:07:32.415Z,51.36
2023-01-15T03:08:32.430Z,51.37
2023-01-15T03:09:32.385Z,51.31
2023-01-15T03:10:32.388Z,51.37
2023-01-15T03:11:32.350Z,51.28
2023-01-15T03:12:32.376Z,51.28
2023-01-15T03:13:32.319Z,51.32
2023-01-15T03:14:32.324Z,51.30
2023-01-15T03:15:32.303Z,51.26
2023-01-15T03:16:32.381Z,51.25
2023-01-15T03:17:32.297Z,51.26
2023-01-15T03:18:32.284Z,51.32
2023-01-15T03:19:32.236Z,51.26
2023-01-15T03:20:32.274Z,51.34
2023-01-15T03:21:32.208Z,51.22
2023-01-15T03:22:32.221Z,51.23
2023-01-15T03:23:32.165Z,51.25
2023-01-15T03:24:32.213Z,51.27
2023-01-15T03:25:32.141Z,51.33
2023-01-15T03:26:32.159Z,51.26
2023-01-15T03:27:32.114Z,51.24
2023-01-15T03:28:32.145Z,51.27
2023-01-15T03:29:32.096Z,51.26
2023-01-15T03:30:32.175Z,51.23
2023-01-15T03:31:32.039Z,51.23
2023-01-15T03:32:32.068Z,51.25
2023-01-15T03:33:32.020Z,51.17
2023-01-15T03:34:32.053Z,51.18
2023-01-15T03:35:31.989Z,51.22
2023-01-15T03:36:32.024Z,51.16
2023-01-15T03:37:31.952Z,51.18
2023-01-15T03:38:31.982Z,51.19
2023-01-15T03:39:31.908Z,51.14
2023-01-15T03:40:31.968Z,51.17
2023-01-15T03:41:31.883Z,51.14
2023-01-15T03:42:31.905Z,51.20
2023-01-15T03:43:31.837Z,51.11
2023-01-15T03:44:31.885Z,51.15
2023-01-15T03:45:31.813Z,51.14
2023-01-15T03:46:31.829Z,51.21
2023-01-15T03:47:31.806Z,51.09
2023-01-15T03:48:31.791Z,51.14
2023-01-15T03:49:31.749Z,51.18
2023-01-15T03:50:31.758Z,51.10
2023-01-15T03:51:31.727Z,51.15
2023-01-15T03:52:31.717Z,51.08
2023-01-15T03:53:31.651Z,51.09
2023-01-15T03:54:31.684Z,51.09
2023-01-15T03:55:31.626Z,51.10
2023-01-15T03:56:31.652Z,51.12
2023-01-15T03:57:31.579Z,51.03
2023-01-15T03:58:31.614Z,51.06
2023-01-15T03:59:31.587Z,51.04
2023-01-15T04:00:31.597Z,51.04
2023-01-15T04:01:31.678Z,51.07
2023-01-15T04:02:31.565Z,51.04
2023-01-15T04:03:31.491Z,51.06
2023-01-15T04:04:31.528Z,50.98
2023-01-15T04:05:31.456Z,51.01
2023-01-15T04:06:31.518Z,51.05
2023-01-15T04:07:31.441Z,51.06
2023-01-15T04:08:31.447Z,51.03
2023-01-15T04:09:31.407Z,51.05
2023-01-15T04:10:31.443Z,50.98
2023-01-15T04:11:31.385Z,51.02
2023-01-15T04:12:31.390Z,50.98
2023-01-15T04:13:31.751Z,51.01
2023-01-15T04:14:31.375Z,51.04
2023-01-15T04:15:31.346Z,51.00
2023-01-15T04:16:31.334Z,51.06
2023-01-15T04:17:31.283Z,50.99
2023-01-15T04:18:31.296Z,50.98
2023-01-15T04:19:31.246Z,50.98
2023-01-15T04:20:31.282Z,51.03
2023-01-15T04:21:31.229Z,50.97
2023-01-15T04:22:31.212Z,50.91
2023-01-15T04:23:31.168Z,50.96
2023-01-15T04:24:31.210Z,50.96
2023-01-15T04:25:31.143Z,50.97
2023-01-15T04:26:31.176Z,50.96
2023-01-15T04:27:31.128Z,50.94
2023-01-15T04:28:31.163Z,50.96
2023-01-15T04:29:31.081Z,50.96
2023-01-15T04:30:31.089Z,50.92
2023-01-15T04:31:31.031Z,50.91
2023-01-15T04:32:31.070Z,50.98
2023-01-15T04:33:31.036Z,50.99
2023-01-15T04:34:31.037Z,50.97
2023-01-15T04:35:30.971Z,50.96
2023-01-15T04:36:31.005Z,50.91
2023-01-15T04:37:30.991Z,50.90
2023-01-15T04:38:31.006Z,50.83
2023-01-15T04:39:30.911Z,50.87
2023-01-15T04:40:30.928Z,50.92
2023-01-15T04:41:30.880Z,50.90
2023-01-15T04:42:30.879Z,50.96
2023-01-15T04:43:30.874Z,50.90
2023-01-15T04:44:30.872Z,50.86
2023-01-15T04:45:30.818Z,50.82
2023-01-15T04:46:30.999Z,50.90
2023-01-15T04:47:30.777Z,50.90
2023-01-15T04:48:30.792Z,50.91
2023-01-15T04:49:30.713Z,50.86
2023-01-15T04:50:30.745Z,50.88
2023-01-15T04:51:30.706Z,50.87
2023-01-15T04:52:30.713Z,50.87
2023-01-15T04:53:30.658Z,50.87
2023-01-15T04:54:30.682Z,50.88
2023-01-15T04:55:30.621Z,50.86
2023-01-15T04:56:30.626Z,50.83
2023-01-15T04:57:30.567Z,50.85
2023-01-15T04:58:30.589Z,50.92
2023-01-15T04:59:30.557Z,50.82
2023-01-15T05:00:30.547Z,50.91
2023-01-15T05:01:30.564Z,50.90
2023-01-15T05:02:30.689Z,50.81
2023-01-15T05:03:30.492Z,50.81
2023-01-15T05:04:30.631Z,50.84
2023-01-15T05:05:30.438Z,50.79
2023-01-15T05:06:30.467Z,50.74
2023-01-15T05:07:30.401Z,50.82
2023-01-15T05:08:30.388Z,50.81
2023-01-15T05:09:30.371Z,50.79
2023-01-15T05:10:30.382Z,50.80
2023-01-15T05:11:30.327Z,50.76
2023-01-15T05:12:30.347Z,50.74
2023-01-15T05:13:30.283Z,50.79
2023-01-15T05:14:30.358Z,50.76
2023-01-15T05:15:30.352Z,50.81
2023-01-15T05:16:30.290Z,50.81
2023-01-15T05:17:30.233Z,50.83
2023-01-15T05:18:30.238Z,50.76
2023-01-15T05:19:30.177Z,50.78
2023-01-15T05:20:30.196Z,50.77
2023-01-15T05:21:30.142Z,50.73
2023-01-15T05:22:30.164Z,50.77
2023-01-15T05:23:30.243Z,50.72
2023-01-15T05:24:30.117Z,50.79
2023-01-15T05:25:30.070Z,50.77
2023-01-15T05:26:30.079Z,50.74
2023-01-15T05:27:30.043Z,50.68
2023-01-15T05:28:30.072Z,50.73
2023-01-15T05:29:29.990Z,50.73
2023-01-15T05:30:29.992Z,50.71
2023-01-15T05:31:29.967Z,50.75
2023-01-15T05:32:29.963Z,50.71
2023-01-15T05:33:29.911Z,50.74
2023-01-15T05:34:29.943Z,50.72
2023-01-15T05:35:29.873Z,50.76
2023-01-15T05:36:29.897Z,50.77
2023-01-15T05:37:29.868Z,50.72
2023-01-15T05:38:29.853Z,50.76
2023-01-15T05:39:29.805Z,50.71
2023-01-15T05:40:29.852Z,50.78
2023-01-15T05:41:29.819Z,50.71
2023-01-15T05:42:29.799Z,50.67
2023-01-15T05:43:29.746Z,50.68
2023-01-15T05:44:29.832Z,50.69
2023-01-15T05:45:29.740Z,50.70
2023-01-15T05:46:29.781Z,50.66
2023-01-15T05:47:29.709Z,50.65
2023-01-15T05:48:29.721Z,50.74
2023-01-15T05:49:29.687Z,50.69
2023-01-15T05:50:29.689Z,50.64
2023-01-15T05:51:29.663Z,50.60
2023-01-15T05:52:29.659Z,50.67
2023-01-15T05:53:29.610Z,50.69
2023-01-15T05:54:29.610Z,50.64
2023-01-15T05:55:29.561Z,50.68
2023-01-15T05:56:29.569Z,50.65
2023-01-15T05:57:29.506Z,50.65
2023-01-15T05:58:29.560Z,50.65
2023-01-15T05:59:29.510Z,50.67
2023-01-15T06:00:30.586Z,50.60
2023-01-15T06:01:29.486Z,50.58
2023-01-15T06:02:29.509Z,50.63
2023-01-15T06:03:29.492Z,50.63
2023-01-15T06:04:29.447Z,50.60
2023-01-15T06:05:29.393Z,50.63
2023-01-15T06:06:29.470Z,50.67
2023-01-15T06:07:29.358Z,50.64
2023-01-15T06:08:29.377Z,50.69
2023-01-15T06:09:29.337Z,50.60
2023-01-15T06:10:29.345Z,50.57
2023-01-15T06:11:29.300Z,50.57
2023-01-15T06:12:29.293Z,50.59
2023-01-15T06:13:29.250Z,50.59
2023-01-15T06:14:29.265Z,50.58
2023-01-15T06:15:29.196Z,50.58
2023-01-15T06:16:29.220Z,50.64
2023-01-15T06:17:29.167Z,50.58
2023-01-15T06:18:29.188Z,50.59
2023-01-15T06:19:29.152Z,50.58
2023-01-15T06:20:29.145Z,50.59
2023-01-15T06:21:29.102Z,50.60
2023-01-15T06:22:29.123Z,50.56
2023-01-15T06:23:29.069Z,50.56
2023-01-15T06:24:29.087Z,50.58
2023-01-15T06:25:29.024Z,50.55
2023-01-15T06:26:29.009Z,50.50
2023-01-15T06:27:28.970Z,50.47
2023-01-15T06:28:28.984Z,50.50
2023-01-15T06:29:28.939Z,50.54
2023-01-15T06:30:28.960Z,50.55
2023-01-15T06:31:28.954Z,50.61
2023-01-15T06:32:28.933Z,50.69
2023-01-15T06:33:28.886Z,50.70
2023-01-15T06:34:28.897Z,51.23
2023-01-15T06:35:28.844Z,50.77
2023-01-15T06:36:28.885Z,50.77
2023-01-15T06:37:28.830Z,50.66
2023-01-15T06:38:28.842Z,50.76
2023-01-15T06:39:28.784Z,50.77
2023-01-15T06:40:28.808Z,50.75
2023-01-15T06:41:28.764Z,50.76
2023-01-15T06:42:28.777Z,50.67
2023-01-15T06:43:28.724Z,50.74
2023-01-15T06:44:28.745Z,50.76
2023-01-15T06:45:28.715Z,50.76
2023-01-15T06:46:28.717Z,50.82
2023-01-15T06:47:28.622Z,51.15
2023-01-15T06:48:28.700Z,50.98
2023-01-15T06:49:28.625Z,51.44
2023-01-15T06:50:28.600Z,51.12
2023-01-15T06:51:30.966Z,51.16
2023-01-15T06:52:28.786Z,51.11
2023-01-15T06:53:28.729Z,51.06
2023-01-15T06:54:28.731Z,51.07
2023-01-15T06:55:28.684Z,51.04
2023-01-15T06:56:28.679Z,51.15
2023-01-15T06:57:28.629Z,51.11
2023-01-15T06:58:28.665Z,51.04
2023-01-15T06:59:28.616Z,51.15
2023-01-15T07:00:28.640Z,51.22
2023-01-15T07:01:28.660Z,51.26
2023-01-15T07:02:28.596Z,51.24
2023-01-15T07:03:28.536Z,51.24
2023-01-15T07:04:28.545Z,51.22
2023-01-15T07:05:28.475Z,51.18
2023-01-15T07:06:28.542Z,51.17
2023-01-15T07:07:28.497Z,51.12
2023-01-15T07:08:28.468Z,51.04
2023-01-15T07:09:28.419Z,51.06
2023-01-15T07:10:28.458Z,51.11
2023-01-15T07:11:28.376Z,50.84
2023-01-15T07:12:28.379Z,50.71
2023-01-15T07:13:28.321Z,50.75
2023-01-15T07:14:28.372Z,51.19
2023-01-15T07:15:28.282Z,50.94
2023-01-15T07:16:28.333Z,50.97
2023-01-15T07:17:28.237Z,50.93
2023-01-15T07:18:28.252Z,50.89
2023-01-15T07:19:28.218Z,51.00
2023-01-15T07:20:28.189Z,50.69
2023-01-15T07:21:28.137Z,50.63
2023-01-15T07:22:28.140Z,50.75
2023-01-15T07:23:28.074Z,50.59
2023-01-15T07:24:28.074Z,51.37
2023-01-15T07:25:28.016Z,50.47
2023-01-15T07:26:28.051Z,50.33
2023-01-15T07:27:27.964Z,50.16
2023-01-15T07:28:27.933Z,50.10
2023-01-15T07:29:29.141Z,50.32
2023-01-15T07:30:27.875Z,50.04
2023-01-15T07:31:27.855Z,49.97
2023-01-15T07:32:27.800Z,49.98
2023-01-15T07:33:27.730Z,49.83
2023-01-15T07:34:27.725Z,49.78
2023-01-15T07:35:27.636Z,49.65
2023-01-15T07:36:27.637Z,49.64
2023-01-15T07:37:28.671Z,49.58
2023-01-15T07:38:27.542Z,49.58
2023-01-15T07:39:27.469Z,49.53
2023-01-15T07:40:27.482Z,49.51
2023-01-15T07:41:27.413Z,49.49
2023-01-15T07:42:27.369Z,49.48
2023-01-15T07:43:27.323Z,49.43
2023-01-15T07:44:27.291Z,49.33
2023-01-15T07:45:27.311Z,49.37
2023-01-15T07:46:27.201Z,49.33
2023-01-15T07:47:27.168Z,49.32
2023-01-15T07:48:27.159Z,49.29
2023-01-15T07:49:27.087Z,49.25
2023-01-15T07:50:27.145Z,49.28
2023-01-15T07:51:27.018Z,49.28
2023-01-15T07:52:26.972Z,49.28
2023-01-15T07:53:26.927Z,49.24
2023-01-15T07:54:26.898Z,49.28
2023-01-15T07:55:26.826Z,49.27
2023-01-15T07:56:26.844Z,49.24
2023-01-15T07:57:26.773Z,49.26
2023-01-15T07:58:26.723Z,49.27
2023-01-15T07:59:26.664Z,49.25
2023-01-15T08:00:26.651Z,49.27
2023-01-15T08:01:26.691Z,49.32
2023-01-15T08:02:26.586Z,49.30
2023-01-15T08:03:26.532Z,49.29
2023-01-15T08:04:26.477Z,49.35
2023-01-15T08:05:26.460Z,49.35
2023-01-15T08:06:26.437Z,49.34
2023-01-15T08:07:26.366Z,49.33
2023-01-15T08:08:26.347Z,49.37
2023-01-15T08:09:26.266Z,49.40
2023-01-15T08:10:26.334Z,49.44
2023-01-15T08:11:26.197Z,49.44
2023-01-15T08:12:26.195Z,49.44
2023-01-15T08:13:26.110Z,49.46
2023-01-15T08:14:34.959Z,49.51
2023-01-15T08:15:26.038Z,49.46
2023-01-15T08:16:26.164Z,49.46
2023-01-15T08:17:25.978Z,49.44
2023-01-15T08:18:25.933Z,49.45
2023-01-15T08:19:25.906Z,49.44
2023-01-15T08:20:25.871Z,49.45
2023-01-15T08:21:25.848Z,49.46
2023-01-15T08:22:25.797Z,49.42
2023-01-15T08:23:25.736Z,49.42
2023-01-15T08:24:25.709Z,49.43
2023-01-15T08:25:25.689Z,49.36
2023-01-15T08:26:25.639Z,49.42
2023-01-15T08:27:25.600Z,49.39
2023-01-15T08:28:25.593Z,49.35
2023-01-15T08:29:25.515Z,49.39
2023-01-15T08:30:25.531Z,49.32
2023-01-15T08:31:25.566Z,49.32
2023-01-15T08:32:25.402Z,49.30
2023-01-15T08:33:25.370Z,49.29
2023-01-15T08:34:25.355Z,49.21
2023-01-15T08:35:25.306Z,49.29
2023-01-15T08:36:25.279Z,49.23
2023-01-15T08:37:25.495Z,49.23
2023-01-15T08:38:25.199Z,49.21
2023-01-15T08:39:25.163Z,49.22
2023-01-15T08:40:25.113Z,49.20
2023-01-15T08:41:25.066Z,49.20
2023-01-15T08:42:25.046Z,49.21
2023-01-15T08:43:25.032Z,49.17
2023-01-15T08:44:24.961Z,49.15
2023-01-15T08:45:24.907Z,49.11
2023-01-15T08:46:24.921Z,49.11
2023-01-15T08:47:24.905Z,49.11
2023-01-15T08:48:24.823Z,49.07
2023-01-15T08:49:24.766Z,49.11
2023-01-15T08:50:24.937Z,49.07
2023-01-15T08:51:24.701Z,49.05
2023-01-15T08:52:24.680Z,49.04
2023-01-15T08:53:24.607Z,49.02
2023-01-15T08:54:24.599Z,49.00
2023-01-15T08:55:24.578Z,48.99
2023-01-15T08:56:24.545Z,48.99
2023-01-15T08:57:24.502Z,48.99
2023-01-15T08:58:24.466Z,48.92
2023-01-15T08:59:24.425Z,48.91
2023-01-15T09:00:24.633Z,48.95
2023-01-15T09:01:24.491Z,48.93
2023-01-15T09:02:24.321Z,48.94
2023-01-15T09:03:24.260Z,48.95
2023-01-15T09:04:24.295Z,49.02
2023-01-15T09:05:24.201Z,49.01
2023-01-15T09:06:24.137Z,48.94
2023-01-15T09:07:24.104Z,48.98
2023-01-15T09:08:24.086Z,49.13
2023-01-15T09:09:24.019Z,49.11
2023-01-15T09:10:24.046Z,49.13
2023-01-15T09:11:23.946Z,49.18
2023-01-15T09:12:23.924Z,49.24
2023-01-15T09:13:23.872Z,49.25
2023-01-15T09:14:56.283Z,49.26
2023-01-15T09:15:24.799Z,49.31
2023-01-15T09:16:23.791Z,49.30
2023-01-15T09:17:23.771Z,49.29
2023-01-15T09:18:23.683Z,49.33
2023-01-15T09:19:23.677Z,49.35
2023-01-15T09:20:23.624Z,49.33
2023-01-15T09:21:23.626Z,49.34
2023-01-15T09:22:23.519Z,49.36
2023-01-15T09:23:23.542Z,49.36
2023-01-15T09:24:23.499Z,49.36
2023-01-15T09:25:23.492Z,49.35
2023-01-15T09:26:23.412Z,49.37
2023-01-15T09:27:23.411Z,49.31
2023-01-15T09:28:23.324Z,49.35
2023-01-15T09:29:23.355Z,49.33
2023-01-15T09:30:23.272Z,49.40
2023-01-15T09:31:23.268Z,49.41
2023-01-15T09:32:23.229Z,49.39
2023-01-15T09:33:23.305Z,49.40
2023-01-15T09:34:23.145Z,49.44
2023-01-15T09:35:23.137Z,49.41
2023-01-15T09:36:23.053Z,49.43
2023-01-15T09:37:23.094Z,49.49
2023-01-15T09:38:23.023Z,49.45
2023-01-15T09:39:23.010Z,49.51
2023-01-15T09:40:22.944Z,49.49
2023-01-15T09:41:22.937Z,49.54
2023-01-15T09:42:22.877Z,49.50
2023-01-15T09:43:22.878Z,49.47
2023-01-15T09:44:22.811Z,49.43
2023-01-15T09:45:22.807Z,49.47
2023-01-15T09:46:22.781Z,49.51
2023-01-15T09:47:22.774Z,49.46
2023-01-15T09:48:22.697Z,49.48
2023-01-15T09:49:22.703Z,49.53
2023-01-15T09:50:22.634Z,49.62
2023-01-15T09:51:22.630Z,49.71
2023-01-15T09:52:22.555Z,49.76
2023-01-15T09:53:22.584Z,49.78
2023-01-15T09:54:22.527Z,49.83
2023-01-15T09:55:22.537Z,49.84
2023-01-15T09:56:22.460Z,49.91
2023-01-15T09:57:22.466Z,49.92
2023-01-15T09:58:22.410Z,49.85
2023-01-15T09:59:22.383Z,49.86
2023-01-15T10:00:22.318Z,49.89
2023-01-15T10:01:22.310Z,49.95
2023-01-15T10:02:22.244Z,49.97
2023-01-15T10:03:22.289Z,50.01
2023-01-15T10:04:22.238Z,50.06
2023-01-15T10:05:22.185Z,50.08
2023-01-15T10:06:22.122Z,50.10
2023-01-15T10:07:22.134Z,50.12
2023-01-15T10:08:22.089Z,50.23
2023-01-15T10:09:22.082Z,50.32
2023-01-15T10:10:22.101Z,50.28
2023-01-15T10:11:22.090Z,50.39
2023-01-15T10:12:22.001Z,49.12
2023-01-15T10:13:22.000Z,42.99
2023-01-15T10:14:21.915Z,39.82
2023-01-15T10:15:21.946Z,37.05
2023-01-15T10:16:21.939Z,36.95
2023-01-15T10:17:21.975Z,35.18
2023-01-15T10:18:21.923Z,35.62
2023-01-15T10:19:21.981Z,35.07
2023-01-15T10:20:21.933Z,35.56
2023-01-15T10:21:21.936Z,34.87
2023-01-15T10:22:21.886Z,34.33
2023-01-15T10:23:21.924Z,34.80
2023-01-15T10:24:21.893Z,34.63
2023-01-15T10:25:21.937Z,35.13
2023-01-15T10:26:21.885Z,34.57
2023-01-15T10:27:21.925Z,35.01
2023-01-15T10:28:21.883Z,35.87
2023-01-15T10:29:21.932Z,35.62
2023-01-15T10:30:21.915Z,35.86
2023-01-15T10:31:22.024Z,36.11
2023-01-15T10:32:21.880Z,36.60
2023-01-15T10:33:21.899Z,37.11
2023-01-15T10:34:21.849Z,37.36
2023-01-15T10:35:21.841Z,37.49
2023-01-15T10:36:21.828Z,37.71
2023-01-15T10:37:22.227Z,37.73
2023-01-15T10:38:21.911Z,38.07
2023-01-15T10:39:21.836Z,38.62
2023-01-15T10:40:21.805Z,38.40
2023-01-15T10:41:21.790Z,38.93
2023-01-15T10:42:21.728Z,38.72
2023-01-15T10:43:21.765Z,38.82
2023-01-15T10:44:21.701Z,39.20
2023-01-15T10:45:21.721Z,39.70
2023-01-15T10:46:21.717Z,39.80
2023-01-15T10:47:21.694Z,39.76
2023-01-15T10:48:21.626Z,39.87
2023-01-15T10:49:21.645Z,39.85
2023-01-15T10:50:21.783Z,39.94
2023-01-15T10:51:21.645Z,39.94
2023-01-15T10:52:21.587Z,40.03
2023-01-15T10:53:21.598Z,40.50
2023-01-15T10:54:21.581Z,40.19
2023-01-15T10:55:21.638Z,40.47
2023-01-15T10:56:21.511Z,40.48
2023-01-15T10:57:21.531Z,40.77
2023-01-15T10:58:21.496Z,40.25
2023-01-15T10:59:21.524Z,40.39
2023-01-15T11:00:21.440Z,41.10
2023-01-15T11:01:21.523Z,40.93
2023-01-15T11:02:21.570Z,41.33
2023-01-15T11:03:21.448Z,40.91
2023-01-15T11:04:21.402Z,41.25
2023-01-15T11:05:21.435Z,41.36
2023-01-15T11:06:21.371Z,41.58
2023-01-15T11:07:22.121Z,41.72
2023-01-15T11:09:06.039Z,41.86
2023-01-15T11:09:22.340Z,42.01
2023-01-15T11:10:21.291Z,42.17
2023-01-15T11:11:21.318Z,42.32
2023-01-15T11:12:21.273Z,42.36
2023-01-15T11:13:21.295Z,42.41
2023-01-15T11:14:21.235Z,42.46
2023-01-15T11:15:21.205Z,42.66
2023-01-15T11:16:21.188Z,42.79
2023-01-15T11:17:21.191Z,42.88
2023-01-15T11:18:21.136Z,42.96
2023-01-15T11:19:21.136Z,43.02
2023-01-15T11:20:21.073Z,43.18
2023-01-15T11:21:21.105Z,43.19
2023-01-15T11:22:21.059Z,43.24
2023-01-15T11:23:21.043Z,43.32
2023-01-15T11:24:21.004Z,43.43
2023-01-15T11:25:20.998Z,44.12
2023-01-15T11:26:20.926Z,43.67
2023-01-15T11:27:20.948Z,43.66
2023-01-15T11:28:21.448Z,44.00
2023-01-15T11:29:20.925Z,44.02
2023-01-15T11:30:20.860Z,44.12
2023-01-15T11:31:20.908Z,44.10
2023-01-15T11:32:20.837Z,44.23
2023-01-15T11:33:20.857Z,44.38
2023-01-15T11:34:21.799Z,44.71
2023-01-15T11:35:20.785Z,44.67
2023-01-15T11:36:20.759Z,45.03
2023-01-15T11:37:21.155Z,46.70
2023-01-15T11:38:20.712Z,46.83
2023-01-15T11:39:20.723Z,46.67
2023-01-15T11:40:20.675Z,46.08
2023-01-15T11:41:20.672Z,46.68
2023-01-15T11:42:20.642Z,47.53
2023-01-15T11:43:20.605Z,48.40
2023-01-15T11:44:20.613Z,47.21
2023-01-15T11:45:20.593Z,47.43
2023-01-15T11:46:20.603Z,47.44
2023-01-15T11:47:20.562Z,47.08
2023-01-15T11:48:20.517Z,47.81
2023-01-15T11:49:20.525Z,47.78
2023-01-15T11:50:20.493Z,47.43
2023-01-15T11:51:20.456Z,48.05
2023-01-15T11:52:20.470Z,47.69
2023-01-15T11:53:20.451Z,47.61
2023-01-15T11:54:20.402Z,47.66
2023-01-15T11:55:20.385Z,47.66
2023-01-15T11:56:20.408Z,47.63
2023-01-15T11:57:20.356Z,47.75
2023-01-15T11:58:20.324Z,47.50
2023-01-15T11:59:20.293Z,48.05
2023-01-15T12:00:20.312Z,48.53
2023-01-15T12:01:20.371Z,48.23
2023-01-15T12:02:20.240Z,48.27
2023-01-15T12:03:20.274Z,48.17
2023-01-15T12:04:20.326Z,48.37
2023-01-15T12:05:20.191Z,48.43
2023-01-15T12:06:20.174Z,48.48
2023-01-15T12:07:20.155Z,48.53
2023-01-15T12:08:20.111Z,48.65
2023-01-15T12:09:20.109Z,48.65
2023-01-15T12:10:20.066Z,48.73
2023-01-15T12:11:26.816Z,48.81
2023-01-15T12:12:21.079Z,48.77
2023-01-15T12:13:20.038Z,48.92
2023-01-15T12:14:20.044Z,48.92
2023-01-15T12:15:19.993Z,48.95
2023-01-15T12:16:20.057Z,48.99
2023-01-15T12:17:19.928Z,49.05
2023-01-15T12:18:19.964Z,49.17
2023-01-15T12:19:19.914Z,49.15
2023-01-15T12:20:19.924Z,49.08
2023-01-15T12:21:19.848Z,49.15
2023-01-15T12:22:19.900Z,49.21
2023-01-15T12:23:19.850Z,49.17
2023-01-15T12:24:19.854Z,49.19
2023-01-15T12:25:19.798Z,49.20
2023-01-15T12:26:19.843Z,49.25
2023-01-15T12:27:19.778Z,49.32
2023-01-15T12:28:19.766Z,49.27
2023-01-15T12:29:19.730Z,49.36
2023-01-15T12:30:19.740Z,49.37
2023-01-15T12:31:19.773Z,49.37
2023-01-15T12:32:19.717Z,49.44
2023-01-15T12:33:19.661Z,49.40
2023-01-15T12:34:19.685Z,49.42
2023-01-15T12:35:19.613Z,49.40
2023-01-15T12:36:19.657Z,49.38
2023-01-15T12:37:19.565Z,49.43
2023-01-15T12:38:19.597Z,49.44
2023-01-15T12:39:19.540Z,49.45
2023-01-15T12:40:19.540Z,49.47
2023-01-15T12:41:19.485Z,49.46
2023-01-15T12:42:19.509Z,49.52
2023-01-15T12:43:19.471Z,49.54
2023-01-15T12:44:19.453Z,49.52
2023-01-15T12:45:19.430Z,49.57
2023-01-15T12:46:19.519Z,49.55
2023-01-15T12:47:19.438Z,49.61
2023-01-15T12:48:19.408Z,49.60
2023-01-15T12:49:19.350Z,49.40
2023-01-15T12:50:19.349Z,49.53
2023-01-15T12:51:19.295Z,49.44
2023-01-15T12:52:19.343Z,49.51